sensor_id;sensor_type;location;lat;lon;timestamp;P1;durP1;ratioP1;P2;durP2;ratioP2
67979;SDS011;54760;47.490;19.030;2023-04-24T00:00:13;12.10;;;5.90;;
67979;SDS011;54760;47.490;19.030;2023-04-24T00:02:39;8.30;;;5.40;;
67979;SDS011;54760;47.490;19.030;2023-04-24T00:05:05;7.10;;;5.55;;
67979;SDS011;54760;47.490;19.030;2023-04-24T00:07:32;12.30;;;5.90;;
67979;SDS011;54760;47.490;19.030;2023-04-24T00:09:58;8.60;;;6.00;;
67979;SDS011;54760;47.490;19.030;2023-04-24T00:12:24;10.40;;;5.55;;
67979;SDS011;54760;47.490;19.030;2023-04-24T00:14:50;8.18;;;5.57;;
67979;SDS011;54760;47.490;19.030;2023-04-24T00:17:15;8.65;;;5.80;;
67979;SDS011;54760;47.490;19.030;2023-04-24T00:19:44;11.15;;;5.43;;
67979;SDS011;54760;47.490;19.030;2023-04-24T00:22:10;8.20;;;5.57;;
67979;SDS011;54760;47.490;19.030;2023-04-24T00:24:36;7.20;;;5.80;;
67979;SDS011;54760;47.490;19.030;2023-04-24T00:27:01;10.43;;;5.70;;
67979;SDS011;54760;47.490;19.030;2023-04-24T00:29:27;8.02;;;5.30;;
67979;SDS011;54760;47.490;19.030;2023-04-24T00:31:53;13.20;;;5.80;;
67979;SDS011;54760;47.490;19.030;2023-04-24T00:34:19;8.93;;;5.25;;
67979;SDS011;54760;47.490;19.030;2023-04-24T00:36:44;9.38;;;5.80;;
67979;SDS011;54760;47.490;19.030;2023-04-24T00:39:10;7.45;;;5.65;;
67979;SDS011;54760;47.490;19.030;2023-04-24T00:41:35;7.82;;;5.62;;
67979;SDS011;54760;47.490;19.030;2023-04-24T00:44:01;9.20;;;5.95;;
67979;SDS011;54760;47.490;19.030;2023-04-24T00:46:26;7.72;;;5.55;;
67979;SDS011;54760;47.490;19.030;2023-04-24T00:48:52;10.07;;;5.62;;
67979;SDS011;54760;47.490;19.030;2023-04-24T00:51:17;10.27;;;6.30;;
67979;SDS011;54760;47.490;19.030;2023-04-24T00:53:43;8.55;;;5.70;;
67979;SDS011;54760;47.490;19.030;2023-04-24T00:56:09;10.82;;;5.60;;
67979;SDS011;54760;47.490;19.030;2023-04-24T00:58:34;7.55;;;5.53;;
67979;SDS011;54760;47.490;19.030;2023-04-24T01:01:00;11.45;;;5.82;;
67979;SDS011;54760;47.490;19.030;2023-04-24T01:03:28;10.07;;;6.00;;
67979;SDS011;54760;47.490;19.030;2023-04-24T01:05:56;9.90;;;5.68;;
67979;SDS011;54760;47.490;19.030;2023-04-24T01:08:26;10.35;;;5.87;;
67979;SDS011;54760;47.490;19.030;2023-04-24T01:10:53;9.30;;;5.82;;
67979;SDS011;54760;47.490;19.030;2023-04-24T01:13:19;8.95;;;6.03;;
67979;SDS011;54760;47.490;19.030;2023-04-24T01:15:46;8.43;;;6.05;;
67979;SDS011;54760;47.490;19.030;2023-04-24T01:18:12;9.30;;;6.15;;
67979;SDS011;54760;47.490;19.030;2023-04-24T01:20:41;7.95;;;5.97;;
67979;SDS011;54760;47.490;19.030;2023-04-24T01:23:07;8.63;;;6.10;;
67979;SDS011;54760;47.490;19.030;2023-04-24T01:25:34;8.98;;;5.90;;
67979;SDS011;54760;47.490;19.030;2023-04-24T01:28:00;11.25;;;6.20;;
67979;SDS011;54760;47.490;19.030;2023-04-24T01:30:26;8.02;;;5.72;;
67979;SDS011;54760;47.490;19.030;2023-04-24T01:32:52;8.98;;;6.05;;
67979;SDS011;54760;47.490;19.030;2023-04-24T01:35:18;11.60;;;6.28;;
67979;SDS011;54760;47.490;19.030;2023-04-24T01:37:43;10.52;;;5.93;;
67979;SDS011;54760;47.490;19.030;2023-04-24T01:40:09;10.02;;;6.28;;
67979;SDS011;54760;47.490;19.030;2023-04-24T01:42:35;8.73;;;6.30;;
67979;SDS011;54760;47.490;19.030;2023-04-24T01:45:01;8.65;;;6.15;;
67979;SDS011;54760;47.490;19.030;2023-04-24T01:47:28;10.05;;;6.03;;
67979;SDS011;54760;47.490;19.030;2023-04-24T01:49:55;10.23;;;6.12;;
67979;SDS011;54760;47.490;19.030;2023-04-24T01:52:20;8.82;;;6.68;;
67979;SDS011;54760;47.490;19.030;2023-04-24T01:54:46;11.10;;;6.10;;
67979;SDS011;54760;47.490;19.030;2023-04-24T01:57:12;9.25;;;6.60;;
67979;SDS011;54760;47.490;19.030;2023-04-24T01:59:38;9.25;;;6.53;;
67979;SDS011;54760;47.490;19.030;2023-04-24T02:02:03;10.75;;;6.62;;
67979;SDS011;54760;47.490;19.030;2023-04-24T02:04:29;10.82;;;7.10;;
67979;SDS011;54760;47.490;19.030;2023-04-24T02:06:55;10.93;;;7.35;;
67979;SDS011;54760;47.490;19.030;2023-04-24T02:09:20;11.85;;;7.30;;
67979;SDS011;54760;47.490;19.030;2023-04-24T02:11:46;14.27;;;7.62;;
67979;SDS011;54760;47.490;19.030;2023-04-24T02:14:11;9.45;;;6.68;;
67979;SDS011;54760;47.490;19.030;2023-04-24T02:16:37;9.68;;;7.05;;
67979;SDS011;54760;47.490;19.030;2023-04-24T02:19:03;8.70;;;7.50;;
67979;SDS011;54760;47.490;19.030;2023-04-24T02:21:28;9.75;;;7.78;;
67979;SDS011;54760;47.490;19.030;2023-04-24T02:23:55;10.77;;;7.28;;
67979;SDS011;54760;47.490;19.030;2023-04-24T02:26:21;11.52;;;8.20;;
67979;SDS011;54760;47.490;19.030;2023-04-24T02:28:46;9.68;;;8.00;;
67979;SDS011;54760;47.490;19.030;2023-04-24T02:31:12;11.60;;;7.82;;
67979;SDS011;54760;47.490;19.030;2023-04-24T02:33:37;13.20;;;8.20;;
67979;SDS011;54760;47.490;19.030;2023-04-24T02:36:02;12.70;;;8.25;;
67979;SDS011;54760;47.490;19.030;2023-04-24T02:38:28;14.93;;;8.68;;
67979;SDS011;54760;47.490;19.030;2023-04-24T02:40:54;10.93;;;8.45;;
67979;SDS011;54760;47.490;19.030;2023-04-24T02:43:20;14.27;;;8.48;;
67979;SDS011;54760;47.490;19.030;2023-04-24T02:45:45;9.95;;;7.70;;
67979;SDS011;54760;47.490;19.030;2023-04-24T02:48:11;10.63;;;7.70;;
67979;SDS011;54760;47.490;19.030;2023-04-24T02:50:36;10.95;;;7.97;;
67979;SDS011;54760;47.490;19.030;2023-04-24T02:53:02;13.50;;;7.70;;
67979;SDS011;54760;47.490;19.030;2023-04-24T02:55:28;11.60;;;7.70;;
67979;SDS011;54760;47.490;19.030;2023-04-24T02:57:53;9.52;;;7.80;;
67979;SDS011;54760;47.490;19.030;2023-04-24T03:00:19;12.85;;;8.40;;
67979;SDS011;54760;47.490;19.030;2023-04-24T03:02:44;8.60;;;7.50;;
67979;SDS011;54760;47.490;19.030;2023-04-24T03:05:10;10.20;;;7.45;;
67979;SDS011;54760;47.490;19.030;2023-04-24T03:07:37;13.23;;;7.80;;
67979;SDS011;54760;47.490;19.030;2023-04-24T03:10:03;10.20;;;7.68;;
67979;SDS011;54760;47.490;19.030;2023-04-24T03:12:29;12.50;;;7.90;;
67979;SDS011;54760;47.490;19.030;2023-04-24T03:14:55;8.35;;;7.50;;
67979;SDS011;54760;47.490;19.030;2023-04-24T03:17:20;11.18;;;7.90;;
67979;SDS011;54760;47.490;19.030;2023-04-24T03:19:46;10.93;;;8.30;;
67979;SDS011;54760;47.490;19.030;2023-04-24T03:22:11;10.50;;;8.05;;
67979;SDS011;54760;47.490;19.030;2023-04-24T03:24:37;9.88;;;8.20;;
67979;SDS011;54760;47.490;19.030;2023-04-24T03:27:02;8.90;;;8.00;;
67979;SDS011;54760;47.490;19.030;2023-04-24T03:29:28;14.85;;;9.00;;
67979;SDS011;54760;47.490;19.030;2023-04-24T03:31:53;10.63;;;8.20;;
67979;SDS011;54760;47.490;19.030;2023-04-24T03:34:18;11.82;;;8.45;;
67979;SDS011;54760;47.490;19.030;2023-04-24T03:36:44;14.87;;;8.98;;
67979;SDS011;54760;47.490;19.030;2023-04-24T03:39:12;9.63;;;8.00;;
67979;SDS011;54760;47.490;19.030;2023-04-24T03:41:37;11.07;;;7.85;;
67979;SDS011;54760;47.490;19.030;2023-04-24T03:44:03;10.77;;;7.03;;
67979;SDS011;54760;47.490;19.030;2023-04-24T03:46:28;8.75;;;7.82;;
67979;SDS011;54760;47.490;19.030;2023-04-24T03:48:54;11.75;;;7.78;;
67979;SDS011;54760;47.490;19.030;2023-04-24T03:51:20;9.32;;;7.45;;
67979;SDS011;54760;47.490;19.030;2023-04-24T03:53:45;9.80;;;8.10;;
67979;SDS011;54760;47.490;19.030;2023-04-24T03:56:11;9.07;;;7.95;;
67979;SDS011;54760;47.490;19.030;2023-04-24T03:58:36;8.82;;;7.70;;
67979;SDS011;54760;47.490;19.030;2023-04-24T04:01:02;10.73;;;7.70;;
67979;SDS011;54760;47.490;19.030;2023-04-24T04:03:27;9.07;;;7.37;;
67979;SDS011;54760;47.490;19.030;2023-04-24T04:05:52;10.40;;;7.30;;
67979;SDS011;54760;47.490;19.030;2023-04-24T04:08:19;10.43;;;7.53;;
67979;SDS011;54760;47.490;19.030;2023-04-24T04:10:44;9.63;;;7.68;;
67979;SDS011;54760;47.490;19.030;2023-04-24T04:13:10;12.63;;;8.02;;
67979;SDS011;54760;47.490;19.030;2023-04-24T04:15:35;9.70;;;7.85;;
67979;SDS011;54760;47.490;19.030;2023-04-24T04:18:01;11.20;;;8.23;;
67979;SDS011;54760;47.490;19.030;2023-04-24T04:20:26;14.25;;;7.45;;
67979;SDS011;54760;47.490;19.030;2023-04-24T04:22:51;11.55;;;7.90;;
67979;SDS011;54760;47.490;19.030;2023-04-24T04:25:17;13.18;;;8.38;;
67979;SDS011;54760;47.490;19.030;2023-04-24T04:27:44;9.77;;;7.72;;
67979;SDS011;54760;47.490;19.030;2023-04-24T04:30:10;10.93;;;8.20;;
67979;SDS011;54760;47.490;19.030;2023-04-24T04:32:36;13.75;;;8.40;;
67979;SDS011;54760;47.490;19.030;2023-04-24T04:35:02;10.50;;;8.63;;
67979;SDS011;54760;47.490;19.030;2023-04-24T04:37:31;14.23;;;8.07;;
67979;SDS011;54760;47.490;19.030;2023-04-24T04:40:01;10.85;;;8.00;;
67979;SDS011;54760;47.490;19.030;2023-04-24T04:42:36;10.13;;;7.47;;
67979;SDS011;54760;47.490;19.030;2023-04-24T04:45:05;10.93;;;8.30;;
67979;SDS011;54760;47.490;19.030;2023-04-24T04:47:38;12.65;;;7.78;;
67979;SDS011;54760;47.490;19.030;2023-04-24T04:50:04;12.95;;;7.30;;
67979;SDS011;54760;47.490;19.030;2023-04-24T04:52:30;13.07;;;7.57;;
67979;SDS011;54760;47.490;19.030;2023-04-24T04:54:56;13.25;;;7.82;;
67979;SDS011;54760;47.490;19.030;2023-04-24T04:57:21;8.27;;;7.37;;
67979;SDS011;54760;47.490;19.030;2023-04-24T04:59:47;9.73;;;7.00;;
67979;SDS011;54760;47.490;19.030;2023-04-24T05:02:12;10.68;;;7.50;;
67979;SDS011;54760;47.490;19.030;2023-04-24T05:04:38;9.90;;;6.93;;
67979;SDS011;54760;47.490;19.030;2023-04-24T05:07:03;10.63;;;7.28;;
67979;SDS011;54760;47.490;19.030;2023-04-24T05:09:29;10.10;;;7.10;;
67979;SDS011;54760;47.490;19.030;2023-04-24T05:11:54;9.82;;;7.18;;
67979;SDS011;54760;47.490;19.030;2023-04-24T05:14:21;10.25;;;7.05;;
67979;SDS011;54760;47.490;19.030;2023-04-24T05:16:47;9.85;;;7.25;;
67979;SDS011;54760;47.490;19.030;2023-04-24T05:19:12;13.77;;;7.80;;
67979;SDS011;54760;47.490;19.030;2023-04-24T05:21:39;11.65;;;7.60;;
67979;SDS011;54760;47.490;19.030;2023-04-24T05:24:05;10.15;;;7.55;;
67979;SDS011;54760;47.490;19.030;2023-04-24T05:26:31;10.75;;;7.85;;
67979;SDS011;54760;47.490;19.030;2023-04-24T05:28:56;10.38;;;7.53;;
67979;SDS011;54760;47.490;19.030;2023-04-24T05:31:22;11.65;;;7.80;;
67979;SDS011;54760;47.490;19.030;2023-04-24T05:33:47;9.98;;;7.93;;
67979;SDS011;54760;47.490;19.030;2023-04-24T05:36:13;9.57;;;7.53;;
67979;SDS011;54760;47.490;19.030;2023-04-24T05:38:38;12.93;;;7.90;;
67979;SDS011;54760;47.490;19.030;2023-04-24T05:41:04;10.25;;;8.05;;
67979;SDS011;54760;47.490;19.030;2023-04-24T05:43:29;11.98;;;8.57;;
67979;SDS011;54760;47.490;19.030;2023-04-24T05:45:55;10.25;;;7.60;;
67979;SDS011;54760;47.490;19.030;2023-04-24T05:48:20;13.77;;;8.13;;
67979;SDS011;54760;47.490;19.030;2023-04-24T05:50:47;10.52;;;7.68;;
67979;SDS011;54760;47.490;19.030;2023-04-24T05:53:13;10.18;;;7.80;;
67979;SDS011;54760;47.490;19.030;2023-04-24T05:55:38;10.50;;;7.62;;
67979;SDS011;54760;47.490;19.030;2023-04-24T05:58:04;14.77;;;8.95;;
67979;SDS011;54760;47.490;19.030;2023-04-24T06:00:29;10.70;;;8.30;;
67979;SDS011;54760;47.490;19.030;2023-04-24T06:02:55;12.85;;;7.80;;
67979;SDS011;54760;47.490;19.030;2023-04-24T06:05:21;13.43;;;7.97;;
67979;SDS011;54760;47.490;19.030;2023-04-24T06:07:47;13.25;;;7.87;;
67979;SDS011;54760;47.490;19.030;2023-04-24T06:10:13;8.98;;;6.97;;
67979;SDS011;54760;47.490;19.030;2023-04-24T06:12:38;10.52;;;7.62;;
67979;SDS011;54760;47.490;19.030;2023-04-24T06:15:04;11.52;;;7.00;;
67979;SDS011;54760;47.490;19.030;2023-04-24T06:17:30;12.68;;;7.00;;
67979;SDS011;54760;47.490;19.030;2023-04-24T06:19:56;11.15;;;6.95;;
67979;SDS011;54760;47.490;19.030;2023-04-24T06:22:21;9.50;;;7.15;;
67979;SDS011;54760;47.490;19.030;2023-04-24T06:24:46;9.98;;;6.97;;
67979;SDS011;54760;47.490;19.030;2023-04-24T06:27:13;11.75;;;7.07;;
67979;SDS011;54760;47.490;19.030;2023-04-24T06:29:38;10.00;;;7.03;;
67979;SDS011;54760;47.490;19.030;2023-04-24T06:32:04;9.70;;;6.82;;
67979;SDS011;54760;47.490;19.030;2023-04-24T06:34:30;9.75;;;7.45;;
67979;SDS011;54760;47.490;19.030;2023-04-24T06:36:56;12.75;;;7.25;;
67979;SDS011;54760;47.490;19.030;2023-04-24T06:39:21;10.88;;;7.22;;
67979;SDS011;54760;47.490;19.030;2023-04-24T06:41:47;11.27;;;7.70;;
67979;SDS011;54760;47.490;19.030;2023-04-24T06:44:12;11.12;;;7.55;;
67979;SDS011;54760;47.490;19.030;2023-04-24T06:46:39;11.07;;;7.72;;
67979;SDS011;54760;47.490;19.030;2023-04-24T06:49:05;10.93;;;7.55;;
67979;SDS011;54760;47.490;19.030;2023-04-24T06:51:31;13.82;;;8.27;;
67979;SDS011;54760;47.490;19.030;2023-04-24T06:53:58;11.48;;;8.20;;
67979;SDS011;54760;47.490;19.030;2023-04-24T06:56:24;10.52;;;7.90;;
67979;SDS011;54760;47.490;19.030;2023-04-24T06:58:50;13.95;;;7.97;;
67979;SDS011;54760;47.490;19.030;2023-04-24T07:01:16;10.70;;;7.90;;
67979;SDS011;54760;47.490;19.030;2023-04-24T07:03:42;9.48;;;8.02;;
67979;SDS011;54760;47.490;19.030;2023-04-24T07:06:07;12.15;;;8.25;;
67979;SDS011;54760;47.490;19.030;2023-04-24T07:08:35;9.68;;;7.90;;
67979;SDS011;54760;47.490;19.030;2023-04-24T07:11:01;10.63;;;7.90;;
67979;SDS011;54760;47.490;19.030;2023-04-24T07:13:27;10.20;;;8.30;;
67979;SDS011;54760;47.490;19.030;2023-04-24T07:15:53;15.13;;;8.00;;
67979;SDS011;54760;47.490;19.030;2023-04-24T07:18:20;13.07;;;8.82;;
67979;SDS011;54760;47.490;19.030;2023-04-24T07:20:46;9.82;;;7.30;;
67979;SDS011;54760;47.490;19.030;2023-04-24T07:23:11;13.10;;;8.75;;
67979;SDS011;54760;47.490;19.030;2023-04-24T07:25:37;10.45;;;7.55;;
67979;SDS011;54760;47.490;19.030;2023-04-24T07:28:03;11.85;;;8.73;;
67979;SDS011;54760;47.490;19.030;2023-04-24T07:30:29;10.15;;;8.45;;
67979;SDS011;54760;47.490;19.030;2023-04-24T07:32:55;11.63;;;7.90;;
67979;SDS011;54760;47.490;19.030;2023-04-24T07:35:21;11.30;;;7.80;;
67979;SDS011;54760;47.490;19.030;2023-04-24T07:37:46;10.30;;;8.25;;
67979;SDS011;54760;47.490;19.030;2023-04-24T07:40:12;10.52;;;7.40;;
67979;SDS011;54760;47.490;19.030;2023-04-24T07:42:38;9.00;;;7.30;;
67979;SDS011;54760;47.490;19.030;2023-04-24T07:45:04;13.90;;;7.80;;
67979;SDS011;54760;47.490;19.030;2023-04-24T07:47:30;9.75;;;7.70;;
67979;SDS011;54760;47.490;19.030;2023-04-24T07:49:56;11.12;;;7.40;;
67979;SDS011;54760;47.490;19.030;2023-04-24T07:52:22;10.15;;;8.07;;
67979;SDS011;54760;47.490;19.030;2023-04-24T07:54:47;9.38;;;7.53;;
67979;SDS011;54760;47.490;19.030;2023-04-24T07:57:14;9.85;;;7.97;;
67979;SDS011;54760;47.490;19.030;2023-04-24T07:59:40;11.98;;;8.23;;
67979;SDS011;54760;47.490;19.030;2023-04-24T08:02:05;9.57;;;7.65;;
67979;SDS011;54760;47.490;19.030;2023-04-24T08:04:31;9.20;;;7.22;;
67979;SDS011;54760;47.490;19.030;2023-04-24T08:06:56;10.43;;;7.60;;
67979;SDS011;54760;47.490;19.030;2023-04-24T08:09:22;7.85;;;7.05;;
67979;SDS011;54760;47.490;19.030;2023-04-24T08:11:47;9.23;;;7.90;;
67979;SDS011;54760;47.490;19.030;2023-04-24T08:14:13;10.13;;;6.93;;
67979;SDS011;54760;47.490;19.030;2023-04-24T08:16:39;8.32;;;6.43;;
67979;SDS011;54760;47.490;19.030;2023-04-24T08:19:05;7.65;;;6.75;;
67979;SDS011;54760;47.490;19.030;2023-04-24T08:21:30;9.55;;;6.65;;
67979;SDS011;54760;47.490;19.030;2023-04-24T08:23:56;12.70;;;6.68;;
67979;SDS011;54760;47.490;19.030;2023-04-24T08:26:22;8.32;;;6.68;;
67979;SDS011;54760;47.490;19.030;2023-04-24T08:28:47;10.15;;;7.07;;
67979;SDS011;54760;47.490;19.030;2023-04-24T08:31:13;9.50;;;7.28;;
67979;SDS011;54760;47.490;19.030;2023-04-24T08:33:38;10.68;;;6.85;;
67979;SDS011;54760;47.490;19.030;2023-04-24T08:36:06;10.00;;;7.30;;
67979;SDS011;54760;47.490;19.030;2023-04-24T08:38:32;8.63;;;7.72;;
67979;SDS011;54760;47.490;19.030;2023-04-24T08:40:58;10.52;;;7.57;;
67979;SDS011;54760;47.490;19.030;2023-04-24T08:43:25;9.45;;;7.32;;
67979;SDS011;54760;47.490;19.030;2023-04-24T08:45:52;10.18;;;7.82;;
67979;SDS011;54760;47.490;19.030;2023-04-24T08:48:18;11.43;;;7.55;;
67979;SDS011;54760;47.490;19.030;2023-04-24T08:50:43;10.98;;;7.57;;
67979;SDS011;54760;47.490;19.030;2023-04-24T08:53:10;13.50;;;7.05;;
67979;SDS011;54760;47.490;19.030;2023-04-24T08:55:37;11.23;;;7.93;;
67979;SDS011;54760;47.490;19.030;2023-04-24T08:58:03;15.23;;;7.75;;
67979;SDS011;54760;47.490;19.030;2023-04-24T09:00:29;10.13;;;7.70;;
67979;SDS011;54760;47.490;19.030;2023-04-24T09:02:55;10.18;;;7.75;;
67979;SDS011;54760;47.490;19.030;2023-04-24T09:05:22;8.02;;;7.22;;
67979;SDS011;54760;47.490;19.030;2023-04-24T09:07:53;8.00;;;6.90;;
67979;SDS011;54760;47.490;19.030;2023-04-24T09:10:20;9.18;;;6.68;;
67979;SDS011;54760;47.490;19.030;2023-04-24T09:12:47;9.50;;;6.78;;
67979;SDS011;54760;47.490;19.030;2023-04-24T09:15:12;8.95;;;7.55;;
67979;SDS011;54760;47.490;19.030;2023-04-24T09:17:38;9.68;;;6.87;;
67979;SDS011;54760;47.490;19.030;2023-04-24T09:20:04;8.23;;;6.28;;
67979;SDS011;54760;47.490;19.030;2023-04-24T09:22:30;11.70;;;6.95;;
67979;SDS011;54760;47.490;19.030;2023-04-24T09:25:06;11.80;;;7.03;;
67979;SDS011;54760;47.490;19.030;2023-04-24T09:27:33;9.88;;;6.95;;
67979;SDS011;54760;47.490;19.030;2023-04-24T09:29:59;9.07;;;6.75;;
67979;SDS011;54760;47.490;19.030;2023-04-24T09:32:25;11.43;;;6.75;;
67979;SDS011;54760;47.490;19.030;2023-04-24T09:35:08;9.30;;;5.80;;
67979;SDS011;54760;47.490;19.030;2023-04-24T09:37:46;9.90;;;6.40;;
67979;SDS011;54760;47.490;19.030;2023-04-24T09:40:17;10.80;;;6.35;;
67979;SDS011;54760;47.490;19.030;2023-04-24T09:43:05;7.85;;;5.82;;
67979;SDS011;54760;47.490;19.030;2023-04-24T09:45:36;9.50;;;6.37;;
67979;SDS011;54760;47.490;19.030;2023-04-24T09:48:03;9.95;;;6.32;;
67979;SDS011;54760;47.490;19.030;2023-04-24T09:50:29;7.37;;;6.00;;
67979;SDS011;54760;47.490;19.030;2023-04-24T09:53:03;7.90;;;5.78;;
67979;SDS011;54760;47.490;19.030;2023-04-24T09:55:30;7.12;;;6.00;;
67979;SDS011;54760;47.490;19.030;2023-04-24T09:57:57;9.85;;;5.90;;
67979;SDS011;54760;47.490;19.030;2023-04-24T10:00:24;9.68;;;6.10;;
67979;SDS011;54760;47.490;19.030;2023-04-24T10:02:54;8.68;;;5.85;;
67979;SDS011;54760;47.490;19.030;2023-04-24T10:05:34;7.57;;;5.25;;
67979;SDS011;54760;47.490;19.030;2023-04-24T10:08:03;9.90;;;6.30;;
67979;SDS011;54760;47.490;19.030;2023-04-24T10:10:39;8.85;;;5.53;;
67979;SDS011;54760;47.490;19.030;2023-04-24T10:13:09;7.97;;;5.32;;
67979;SDS011;54760;47.490;19.030;2023-04-24T10:15:36;7.80;;;5.62;;
67979;SDS011;54760;47.490;19.030;2023-04-24T10:18:02;8.98;;;5.28;;
67979;SDS011;54760;47.490;19.030;2023-04-24T10:20:31;9.80;;;5.25;;
67979;SDS011;54760;47.490;19.030;2023-04-24T10:22:58;7.68;;;5.30;;
67979;SDS011;54760;47.490;19.030;2023-04-24T10:25:34;7.45;;;5.72;;
67979;SDS011;54760;47.490;19.030;2023-04-24T10:28:01;8.20;;;5.68;;
67979;SDS011;54760;47.490;19.030;2023-04-24T10:30:34;6.50;;;4.85;;
67979;SDS011;54760;47.490;19.030;2023-04-24T10:33:04;9.18;;;5.62;;
67979;SDS011;54760;47.490;19.030;2023-04-24T10:35:32;7.55;;;5.40;;
67979;SDS011;54760;47.490;19.030;2023-04-24T10:38:42;6.93;;;6.07;;
67979;SDS011;54760;47.490;19.030;2023-04-24T10:40:50;10.82;;;6.30;;
67979;SDS011;54760;47.490;19.030;2023-04-24T10:43:16;9.40;;;6.15;;
67979;SDS011;54760;47.490;19.030;2023-04-24T10:45:59;10.32;;;6.25;;
67979;SDS011;54760;47.490;19.030;2023-04-24T10:53:20;8.47;;;6.70;;
67979;SDS011;54760;47.490;19.030;2023-04-24T10:55:52;9.00;;;7.18;;
67979;SDS011;54760;47.490;19.030;2023-04-24T10:58:37;12.27;;;6.75;;
67979;SDS011;54760;47.490;19.030;2023-04-24T11:01:11;8.35;;;6.87;;
67979;SDS011;54760;47.490;19.030;2023-04-24T11:03:58;7.80;;;6.80;;
67979;SDS011;54760;47.490;19.030;2023-04-24T11:06:35;10.43;;;6.80;;
67979;SDS011;54760;47.490;19.030;2023-04-24T11:09:08;9.10;;;6.50;;
67979;SDS011;54760;47.490;19.030;2023-04-24T11:11:37;7.85;;;7.05;;
67979;SDS011;54760;47.490;19.030;2023-04-24T11:14:09;12.00;;;7.12;;
67979;SDS011;54760;47.490;19.030;2023-04-24T11:19:10;8.25;;;7.05;;
67979;SDS011;54760;47.490;19.030;2023-04-24T11:21:48;10.07;;;7.07;;
67979;SDS011;54760;47.490;19.030;2023-04-24T11:24:37;10.77;;;6.93;;
67979;SDS011;54760;47.490;19.030;2023-04-24T11:29:38;9.45;;;6.47;;
67979;SDS011;54760;47.490;19.030;2023-04-24T11:34:45;9.13;;;7.85;;
67979;SDS011;54760;47.490;19.030;2023-04-24T11:37:12;10.75;;;6.95;;
67979;SDS011;54760;47.490;19.030;2023-04-24T11:39:38;10.07;;;7.40;;
67979;SDS011;54760;47.490;19.030;2023-04-24T11:42:06;11.43;;;7.25;;
67979;SDS011;54760;47.490;19.030;2023-04-24T11:44:33;10.68;;;7.50;;
67979;SDS011;54760;47.490;19.030;2023-04-24T11:46:59;11.27;;;7.87;;
67979;SDS011;54760;47.490;19.030;2023-04-24T11:49:25;9.30;;;7.10;;
67979;SDS011;54760;47.490;19.030;2023-04-24T11:51:54;7.93;;;7.12;;
67979;SDS011;54760;47.490;19.030;2023-04-24T11:54:20;11.02;;;7.70;;
67979;SDS011;54760;47.490;19.030;2023-04-24T11:56:46;11.25;;;8.13;;
67979;SDS011;54760;47.490;19.030;2023-04-24T11:59:12;9.65;;;8.13;;
67979;SDS011;54760;47.490;19.030;2023-04-24T12:01:47;10.57;;;7.80;;
67979;SDS011;54760;47.490;19.030;2023-04-24T12:04:14;10.65;;;7.80;;
67979;SDS011;54760;47.490;19.030;2023-04-24T12:07:00;9.13;;;7.22;;
67979;SDS011;54760;47.490;19.030;2023-04-24T12:09:39;11.45;;;6.97;;
67979;SDS011;54760;47.490;19.030;2023-04-24T12:12:08;8.70;;;7.00;;
67979;SDS011;54760;47.490;19.030;2023-04-24T12:14:41;8.07;;;6.68;;
67979;SDS011;54760;47.490;19.030;2023-04-24T12:17:12;7.43;;;5.40;;
67979;SDS011;54760;47.490;19.030;2023-04-24T12:19:38;15.90;;;6.50;;
67979;SDS011;54760;47.490;19.030;2023-04-24T12:22:11;11.25;;;7.40;;
67979;SDS011;54760;47.490;19.030;2023-04-24T12:24:54;10.20;;;8.05;;
67979;SDS011;54760;47.490;19.030;2023-04-24T12:27:23;13.70;;;8.13;;
67979;SDS011;54760;47.490;19.030;2023-04-24T12:29:52;12.23;;;8.55;;
67979;SDS011;54760;47.490;19.030;2023-04-24T12:32:21;13.18;;;8.60;;
67979;SDS011;54760;47.490;19.030;2023-04-24T12:34:47;10.68;;;7.90;;
67979;SDS011;54760;47.490;19.030;2023-04-24T12:37:12;11.23;;;8.10;;
67979;SDS011;54760;47.490;19.030;2023-04-24T12:39:37;10.57;;;7.32;;
67979;SDS011;54760;47.490;19.030;2023-04-24T12:42:03;11.05;;;7.70;;
67979;SDS011;54760;47.490;19.030;2023-04-24T12:44:32;11.32;;;7.82;;
67979;SDS011;54760;47.490;19.030;2023-04-24T12:46:59;9.63;;;7.62;;
67979;SDS011;54760;47.490;19.030;2023-04-24T12:49:26;9.48;;;7.65;;
67979;SDS011;54760;47.490;19.030;2023-04-24T12:51:52;8.50;;;7.07;;
67979;SDS011;54760;47.490;19.030;2023-04-24T12:54:18;7.20;;;6.20;;
67979;SDS011;54760;47.490;19.030;2023-04-24T12:56:43;9.95;;;6.65;;
67979;SDS011;54760;47.490;19.030;2023-04-24T12:59:09;11.05;;;6.30;;
67979;SDS011;54760;47.490;19.030;2023-04-24T13:01:34;12.13;;;6.12;;
67979;SDS011;54760;47.490;19.030;2023-04-24T13:04:00;10.20;;;6.45;;
67979;SDS011;54760;47.490;19.030;2023-04-24T13:06:25;8.32;;;5.97;;
67979;SDS011;54760;47.490;19.030;2023-04-24T13:08:51;8.50;;;6.20;;
67979;SDS011;54760;47.490;19.030;2023-04-24T13:11:17;13.75;;;5.32;;
67979;SDS011;54760;47.490;19.030;2023-04-24T13:13:42;8.48;;;5.35;;
67979;SDS011;54760;47.490;19.030;2023-04-24T13:16:08;7.57;;;5.50;;
67979;SDS011;54760;47.490;19.030;2023-04-24T13:18:33;9.55;;;5.32;;
67979;SDS011;54760;47.490;19.030;2023-04-24T13:20:59;6.12;;;4.70;;
67979;SDS011;54760;47.490;19.030;2023-04-24T13:23:24;6.55;;;4.87;;
67979;SDS011;54760;47.490;19.030;2023-04-24T13:25:50;6.40;;;4.43;;
67979;SDS011;54760;47.490;19.030;2023-04-24T13:28:15;8.07;;;4.53;;
67979;SDS011;54760;47.490;19.030;2023-04-24T13:30:40;5.70;;;3.75;;
67979;SDS011;54760;47.490;19.030;2023-04-24T13:33:06;7.62;;;3.67;;
67979;SDS011;54760;47.490;19.030;2023-04-24T13:35:32;5.28;;;3.78;;
67979;SDS011;54760;47.490;19.030;2023-04-24T13:37:57;6.80;;;3.70;;
67979;SDS011;54760;47.490;19.030;2023-04-24T13:40:23;8.20;;;4.20;;
67979;SDS011;54760;47.490;19.030;2023-04-24T13:42:48;6.80;;;3.83;;
67979;SDS011;54760;47.490;19.030;2023-04-24T13:45:14;6.10;;;3.85;;
67979;SDS011;54760;47.490;19.030;2023-04-24T13:47:40;9.20;;;3.83;;
67979;SDS011;54760;47.490;19.030;2023-04-24T13:50:08;7.45;;;4.30;;
67979;SDS011;54760;47.490;19.030;2023-04-24T13:52:34;12.52;;;5.03;;
67979;SDS011;54760;47.490;19.030;2023-04-24T13:55:00;8.35;;;4.82;;
67979;SDS011;54760;47.490;19.030;2023-04-24T13:57:25;10.88;;;5.20;;
67979;SDS011;54760;47.490;19.030;2023-04-24T13:59:51;14.98;;;5.43;;
67979;SDS011;54760;47.490;19.030;2023-04-24T14:02:17;8.48;;;5.15;;
67979;SDS011;54760;47.490;19.030;2023-04-24T14:04:42;7.97;;;5.28;;
67979;SDS011;54760;47.490;19.030;2023-04-24T14:07:07;12.18;;;5.50;;
67979;SDS011;54760;47.490;19.030;2023-04-24T14:09:33;8.35;;;5.50;;
67979;SDS011;54760;47.490;19.030;2023-04-24T14:11:59;8.45;;;5.53;;
67979;SDS011;54760;47.490;19.030;2023-04-24T14:14:26;7.07;;;4.80;;
67979;SDS011;54760;47.490;19.030;2023-04-24T14:16:52;11.45;;;5.62;;
67979;SDS011;54760;47.490;19.030;2023-04-24T14:19:18;10.45;;;5.35;;
67979;SDS011;54760;47.490;19.030;2023-04-24T14:21:44;10.23;;;5.70;;
67979;SDS011;54760;47.490;19.030;2023-04-24T14:24:09;9.80;;;5.97;;
67979;SDS011;54760;47.490;19.030;2023-04-24T14:26:35;9.82;;;5.18;;
67979;SDS011;54760;47.490;19.030;2023-04-24T14:29:00;6.90;;;5.05;;
67979;SDS011;54760;47.490;19.030;2023-04-24T14:31:27;8.02;;;4.97;;
67979;SDS011;54760;47.490;19.030;2023-04-24T14:33:52;9.27;;;5.22;;
67979;SDS011;54760;47.490;19.030;2023-04-24T14:36:18;7.95;;;5.28;;
67979;SDS011;54760;47.490;19.030;2023-04-24T14:38:43;11.98;;;5.03;;